sensor_id;sensor_type;location;lat;lon;timestamp;pressure;altitude;pressure_sealevel;temperature;humidity
8515;BME280;4295;51.024;7.000;2022-07-26T00:00:20;91561.97;;;-143.72;100.00
8515;BME280;4295;51.024;7.000;2022-07-26T00:02:46;91604.13;;;-143.72;100.00
8515;BME280;4295;51.024;7.000;2022-07-26T00:05:12;91622.19;;;-143.72;100.00
8515;BME280;4295;51.024;7.000;2022-07-26T00:07:37;91596.09;;;-143.72;100.00
8515;BME280;4295;51.024;7.000;2022-07-26T00:10:04;91616.16;;;-143.72;100.00
8515;BME280;4295;51.024;7.000;2022-07-26T00:12:30;91624.19;;;-143.72;100.00
8515;BME280;4295;51.024;7.000;2022-07-26T00:14:56;91646.28;;;-143.72;100.00
8515;BME280;4295;51.024;7.000;2022-07-26T00:17:21;91925.31;;;-143.72;100.00
8515;BME280;4295;51.024;7.000;2022-07-26T00:19:47;91710.50;;;-143.72;100.00
8515;BME280;4295;51.024;7.000;2022-07-26T00:22:12;91728.59;;;-143.72;100.00
8515;BME280;4295;51.024;7.000;2022-07-26T00:24:56;91690.44;;;-143.72;100.00
8515;BME280;4295;51.024;7.000;2022-07-26T00:27:22;91714.53;;;-143.72;100.00
8515;BME280;4295;51.024;7.000;2022-07-26T00:29:47;91636.22;;;-143.72;100.00
8515;BME280;4295;51.024;7.000;2022-07-26T00:32:12;91764.72;;;-143.72;100.00
8515;BME280;4295;51.024;7.000;2022-07-26T00:34:38;91742.63;;;-143.72;100.00
8515;BME280;4295;51.024;7.000;2022-07-26T00:37:03;91792.81;;;-143.72;100.00
8515;BME280;4295;51.024;7.000;2022-07-26T00:39:29;91762.72;;;-143.72;100.00
8515;BME280;4295;51.024;7.000;2022-07-26T00:41:54;91750.66;;;-143.72;100.00
8515;BME280;4295;51.024;7.000;2022-07-26T00:44:19;91497.72;;;-143.72;100.00
8515;BME280;4295;51.024;7.000;2022-07-26T00:46:45;91728.59;;;-143.72;100.00
8515;BME280;4295;51.024;7.000;2022-07-26T00:49:11;91762.72;;;-143.72;100.00
8515;BME280;4295;51.024;7.000;2022-07-26T00:51:37;91788.81;;;-143.72;100.00
8515;BME280;4295;51.024;7.000;2022-07-26T00:54:04;91770.75;;;-143.72;100.00
8515;BME280;4295;51.024;7.000;2022-07-26T00:56:31;91824.94;;;-143.72;100.00
8515;BME280;4295;51.024;7.000;2022-07-26T00:58:57;91780.78;;;-143.72;100.00
8515;BME280;4295;51.024;7.000;2022-07-26T01:01:22;91784.78;;;-143.72;100.00
8515;BME280;4295;51.024;7.000;2022-07-26T01:03:52;91762.72;;;-143.72;100.00
8515;BME280;4295;51.024;7.000;2022-07-26T01:06:17;91620.19;;;-143.72;100.00
8515;BME280;4295;51.024;7.000;2022-07-26T01:08:43;91722.56;;;-143.72;100.00
8515;BME280;4295;51.024;7.000;2022-07-26T01:11:09;91638.25;;;-143.72;100.00
8515;BME280;4295;51.024;7.000;2022-07-26T01:13:34;91650.28;;;-143.72;100.00
8515;BME280;4295;51.024;7.000;2022-07-26T01:16:00;91604.13;;;-143.72;100.00
8515;BME280;4295;51.024;7.000;2022-07-26T01:18:25;91800.84;;;-143.72;100.00
8515;BME280;4295;51.024;7.000;2022-07-26T01:20:52;91531.84;;;-143.72;100.00
8515;BME280;4295;51.024;7.000;2022-07-26T01:23:18;91407.38;;;-143.72;100.00
8515;BME280;4295;51.024;7.000;2022-07-26T01:25:43;91397.34;;;-143.72;100.00
8515;BME280;4295;51.024;7.000;2022-07-26T01:28:09;91262.84;;;-143.72;100.00
8515;BME280;4295;51.024;7.000;2022-07-26T01:30:34;91126.38;;;-143.72;100.00
8515;BME280;4295;51.024;7.000;2022-07-26T01:33:00;91138.41;;;-143.72;100.00
8515;BME280;4295;51.024;7.000;2022-07-26T01:35:28;91108.31;;;-143.72;100.00
8515;BME280;4295;51.024;7.000;2022-07-26T01:37:54;91020.00;;;-143.72;100.00
8515;BME280;4295;51.024;7.000;2022-07-26T01:40:20;91003.94;;;-143.72;100.00
8515;BME280;4295;51.024;7.000;2022-07-26T01:42:45;90407.88;;;-143.72;100.00
8515;BME280;4295;51.024;7.000;2022-07-26T01:45:11;90411.88;;;-143.72;100.00
8515;BME280;4295;51.024;7.000;2022-07-26T01:47:38;89898.19;;;-143.72;100.00
8515;BME280;4295;51.024;7.000;2022-07-26T01:50:05;89454.78;;;-143.72;100.00
8515;BME280;4295;51.024;7.000;2022-07-26T01:52:31;88724.59;;;-143.72;100.00
8515;BME280;4295;51.024;7.000;2022-07-26T01:54:57;87940.41;;;-143.72;100.00
8515;BME280;4295;51.024;7.000;2022-07-26T01:57:23;87146.38;;;-143.72;100.00
8515;BME280;4295;51.024;7.000;2022-07-26T01:59:48;86480.81;;;-143.72;100.00
8515;BME280;4295;51.024;7.000;2022-07-26T02:02:13;85496.75;;;-143.72;100.00
8515;BME280;4295;51.024;7.000;2022-07-26T02:04:39;84683.25;;;-143.72;100.00
8515;BME280;4295;51.024;7.000;2022-07-26T02:07:22;84098.28;;;-143.72;100.00
8515;BME280;4295;51.024;7.000;2022-07-26T02:09:48;83633.59;;;-143.72;100.00
8515;BME280;4295;51.024;7.000;2022-07-26T02:12:14;82358.00;;;-143.72;100.00
8515;BME280;4295;51.024;7.000;2022-07-26T02:14:39;81649.34;;;-143.72;100.00
8515;BME280;4295;51.024;7.000;2022-07-26T02:17:05;80536.56;;;-143.72;100.00
8515;BME280;4295;51.024;7.000;2022-07-26T02:19:30;79092.13;;;-143.72;100.00
8515;BME280;4295;51.024;7.000;2022-07-26T02:21:56;78130.16;;;-143.72;100.00
8515;BME280;4295;51.024;7.000;2022-07-26T02:24:23;77062.50;;;-143.72;100.00
8515;BME280;4295;51.024;7.000;2022-07-26T02:26:48;76606.75;;;-143.72;100.00
8515;BME280;4295;51.024;7.000;2022-07-26T02:29:14;75551.56;;;-143.72;100.00
8515;BME280;4295;51.024;7.000;2022-07-26T02:31:39;73569.97;;;-143.72;100.00
8515;BME280;4295;51.024;7.000;2022-07-26T02:34:04;72467.81;;;-143.72;100.00
8515;BME280;4295;51.024;7.000;2022-07-26T02:36:30;72633.53;;;-143.72;100.00
8515;BME280;4295;51.024;7.000;2022-07-26T02:38:55;71809.09;;;-143.72;100.00
8515;BME280;4295;51.024;7.000;2022-07-26T02:41:20;70260.56;;;-143.72;100.00
8515;BME280;4295;51.024;7.000;2022-07-26T02:43:46;70515.94;;;-143.72;100.00
8515;BME280;4295;51.024;7.000;2022-07-26T02:46:11;69239.25;;;-143.72;100.00
8515;BME280;4295;51.024;7.000;2022-07-26T02:48:37;66942.41;;;-143.72;100.00
8515;BME280;4295;51.024;7.000;2022-07-26T02:51:02;68218.22;;;-143.72;100.00
8515;BME280;4295;51.024;7.000;2022-07-26T02:53:28;69494.56;;;-143.72;100.00
8515;BME280;4295;51.024;7.000;2022-07-26T02:55:53;66942.41;;;-143.72;100.00
8515;BME280;4295;51.024;7.000;2022-07-26T02:58:18;65922.06;;;-143.72;100.00
8515;BME280;4295;51.024;7.000;2022-07-26T03:00:46;64392.16;;;-143.72;100.00
8515;BME280;4295;51.024;7.000;2022-07-26T03:03:12;62608.09;;;-143.72;100.00
8515;BME280;4295;51.024;7.000;2022-07-26T03:05:38;62098.56;;;-143.72;100.00
8515;BME280;4295;51.024;7.000;2022-07-26T03:08:04;60315.72;;;-143.72;100.00
8515;BME280;4295;51.024;7.000;2022-07-26T03:10:30;58788.31;;;-143.72;100.00
8515;BME280;4295;51.024;7.000;2022-07-26T03:12:55;57516.00;;;-143.72;100.00
8515;BME280;4295;51.024;7.000;2022-07-26T03:15:20;57007.22;;;-143.72;100.00
8515;BME280;4295;51.024;7.000;2022-07-26T03:17:46;56752.84;;;-143.72;100.00
8515;BME280;4295;51.024;7.000;2022-07-26T03:20:11;57516.00;;;-143.72;100.00
8515;BME280;4295;51.024;7.000;2022-07-26T03:22:37;57261.59;;;-143.72;100.00
8515;BME280;4295;51.024;7.000;2022-07-26T03:25:02;57770.44;;;-143.72;100.00
8515;BME280;4295;51.024;7.000;2022-07-26T03:27:28;57770.44;;;-143.72;100.00
8515;BME280;4295;51.024;7.000;2022-07-26T03:29:53;56498.50;;;-143.72;100.00
8515;BME280;4295;51.024;7.000;2022-07-26T03:32:19;55227.03;;;-143.72;100.00
8515;BME280;4295;51.024;7.000;2022-07-26T03:34:44;55227.03;;;-143.72;100.00
8515;BME280;4295;51.024;7.000;2022-07-26T03:37:10;54464.41;;;-143.72;100.00
8515;BME280;4295;51.024;7.000;2022-07-26T03:39:35;53701.94;;;-143.72;100.00
8515;BME280;4295;51.024;7.000;2022-07-26T03:42:03;54464.41;;;-143.72;100.00
8515;BME280;4295;51.024;7.000;2022-07-26T03:44:28;54718.59;;;-143.72;100.00
8515;BME280;4295;51.024;7.000;2022-07-26T03:46:53;54210.22;;;-143.72;100.00
8515;BME280;4295;51.024;7.000;2022-07-26T03:49:19;52939.63;;;-143.72;100.00
8515;BME280;4295;51.024;7.000;2022-07-26T03:51:44;52685.56;;;-143.72;100.00
8515;BME280;4295;51.024;7.000;2022-07-26T03:54:10;51415.53;;;-143.72;100.00
8515;BME280;4295;51.024;7.000;2022-07-26T03:56:35;50907.66;;;-143.72;100.00
8515;BME280;4295;51.024;7.000;2022-07-26T03:59:09;50907.66;;;-143.72;100.00
8515;BME280;4295;51.024;7.000;2022-07-26T04:01:36;50907.66;;;-143.72;100.00
8515;BME280;4295;51.024;7.000;2022-07-26T04:04:08;51161.59;;;-143.72;100.00
8515;BME280;4295;51.024;7.000;2022-07-26T04:06:34;49384.50;;;-143.72;100.00
8515;BME280;4295;51.024;7.000;2022-07-26T04:09:00;48623.19;;;-143.72;100.00
8515;BME280;4295;51.024;7.000;2022-07-26T04:11:26;47354.69;;;-143.72;100.00
8515;BME280;4295;51.024;7.000;2022-07-26T04:13:51;46847.41;;;-143.72;100.00
8515;BME280;4295;51.024;7.000;2022-07-26T04:16:16;46593.81;;;-143.72;100.00
8515;BME280;4295;51.024;7.000;2022-07-26T04:18:42;46593.81;;;-143.72;100.00
8515;BME280;4295;51.024;7.000;2022-07-26T04:21:07;45072.59;;;-143.72;100.00
8515;BME280;4295;51.024;7.000;2022-07-26T04:23:35;44312.22;;;-143.72;100.00
8515;BME280;4295;51.024;7.000;2022-07-26T04:26:00;44058.81;;;-143.72;100.00
8515;BME280;4295;51.024;7.000;2022-07-26T04:28:25;43298.69;;;-143.72;100.00
8515;BME280;4295;51.024;7.000;2022-07-26T04:30:56;43298.69;;;-143.72;100.00
8515;BME280;4295;51.024;7.000;2022-07-26T04:33:22;42538.75;;;-143.72;100.00
8515;BME280;4295;51.024;7.000;2022-07-26T04:35:47;42538.75;;;-143.72;100.00
8515;BME280;4295;51.024;7.000;2022-07-26T04:38:12;43298.69;;;-143.72;100.00
8515;BME280;4295;51.024;7.000;2022-07-26T04:40:38;43045.34;;;-143.72;100.00
8515;BME280;4295;51.024;7.000;2022-07-26T04:43:03;42792.03;;;-143.72;100.00
8515;BME280;4295;51.024;7.000;2022-07-26T04:45:29;43298.69;;;-143.72;100.00
8515;BME280;4295;51.024;7.000;2022-07-26T04:47:55;43805.44;;;-143.72;100.00
8515;BME280;4295;51.024;7.000;2022-07-26T04:50:21;42792.03;;;-143.72;100.00
8515;BME280;4295;51.024;7.000;2022-07-26T04:52:48;43298.69;;;-143.72;100.00
8515;BME280;4295;51.024;7.000;2022-07-26T04:55:13;42792.03;;;-143.72;100.00
8515;BME280;4295;51.024;7.000;2022-07-26T04:57:39;42538.75;;;-143.72;100.00
8515;BME280;4295;51.024;7.000;2022-07-26T05:00:07;40006.81;;;-143.72;100.00
8515;BME280;4295;51.024;7.000;2022-07-26T05:02:33;40006.81;;;-143.72;100.00
8515;BME280;4295;51.024;7.000;2022-07-26T05:04:59;39500.63;;;-143.72;100.00
8515;BME280;4295;51.024;7.000;2022-07-26T05:07:24;39247.59;;;-143.72;100.00
8515;BME280;4295;51.024;7.000;2022-07-26T05:09:49;40513.03;;;-143.72;100.00
8515;BME280;4295;51.024;7.000;2022-07-26T05:12:15;40006.81;;;-143.72;100.00
8515;BME280;4295;51.024;7.000;2022-07-26T05:14:40;39753.72;;;-143.72;100.00
8515;BME280;4295;51.024;7.000;2022-07-26T05:17:06;39247.59;;;-143.72;100.00
8515;BME280;4295;51.024;7.000;2022-07-26T05:19:31;40006.81;;;-143.72;100.00
8515;BME280;4295;51.024;7.000;2022-07-26T05:21:57;39753.72;;;-143.72;100.00
8515;BME280;4295;51.024;7.000;2022-07-26T05:24:22;40259.91;;;-143.72;100.00
8515;BME280;4295;51.024;7.000;2022-07-26T05:26:48;38741.53;;;-143.72;100.00
8515;BME280;4295;51.024;7.000;2022-07-26T05:29:13;39500.63;;;-143.72;100.00
8515;BME280;4295;51.024;7.000;2022-07-26T05:31:39;40006.81;;;-143.72;100.00
8515;BME280;4295;51.024;7.000;2022-07-26T05:34:04;38488.56;;;-143.72;100.00
8515;BME280;4295;51.024;7.000;2022-07-26T05:36:30;38741.53;;;-143.72;100.00
8515;BME280;4295;51.024;7.000;2022-07-26T05:38:55;38994.56;;;-143.72;100.00
8515;BME280;4295;51.024;7.000;2022-07-26T05:41:21;37223.88;;;-143.72;100.00
8515;BME280;4295;51.024;7.000;2022-07-26T05:43:46;37476.78;;;-143.72;100.00
8515;BME280;4295;51.024;7.000;2022-07-26T05:46:12;36465.28;;;-143.72;100.00
8515;BME280;4295;51.024;7.000;2022-07-26T05:48:40;36465.28;;;-143.72;100.00
8515;BME280;4295;51.024;7.000;2022-07-26T05:51:07;34948.63;;;-143.72;100.00
8515;BME280;4295;51.024;7.000;2022-07-26T05:53:32;34443.25;;;-143.72;100.00
8515;BME280;4295;51.024;7.000;2022-07-26T05:55:57;34948.63;;;-143.72;100.00
8515;BME280;4295;51.024;7.000;2022-07-26T05:58:23;34190.56;;;-143.72;100.00
8515;BME280;4295;51.024;7.000;2022-07-26T06:00:48;34443.25;;;-143.72;100.00
8515;BME280;4295;51.024;7.000;2022-07-26T06:03:13;34443.25;;;-143.72;100.00
8515;BME280;4295;51.024;7.000;2022-07-26T06:05:53;33937.94;;;-143.72;100.00
8515;BME280;4295;51.024;7.000;2022-07-26T06:08:19;33937.94;;;-143.72;100.00
8515;BME280;4295;51.024;7.000;2022-07-26T06:10:45;33180.09;;;-143.72;100.00
8515;BME280;4295;51.024;7.000;2022-07-26T06:13:11;33937.94;;;-143.72;100.00
8515;BME280;4295;51.024;7.000;2022-07-26T06:15:37;33937.94;;;-143.72;100.00
8515;BME280;4295;51.024;7.000;2022-07-26T06:18:04;34948.63;;;-143.72;100.00
8515;BME280;4295;51.024;7.000;2022-07-26T06:20:30;34695.94;;;-143.72;100.00
8515;BME280;4295;51.024;7.000;2022-07-26T06:22:56;33432.69;;;-143.72;100.00
8515;BME280;4295;51.024;7.000;2022-07-26T06:25:25;31664.94;;;-143.72;100.00
8515;BME280;4295;51.024;7.000;2022-07-26T06:27:53;31412.47;;;-143.72;100.00
8515;BME280;4295;51.024;7.000;2022-07-26T06:30:19;31412.47;;;-143.72;100.00
8515;BME280;4295;51.024;7.000;2022-07-26T06:32:44;30402.81;;;-143.72;100.00
8515;BME280;4295;51.024;7.000;2022-07-26T06:35:10;30402.81;;;-143.72;100.00
8515;BME280;4295;51.024;7.000;2022-07-26T06:37:38;31412.47;;;-143.72;100.00
8515;BME280;4295;51.024;7.000;2022-07-26T06:40:09;30655.22;;;-143.72;100.00
8515;BME280;4295;51.024;7.000;2022-07-26T06:42:36;30655.22;;;-143.72;100.00
8515;BME280;4295;51.024;7.000;2022-07-26T06:45:03;30402.81;;;-143.72;100.00
8515;BME280;4295;51.024;7.000;2022-07-26T06:47:28;31412.47;;;-143.72;100.00
8515;BME280;4295;51.024;7.000;2022-07-26T06:49:54;32674.97;;;-143.72;100.00
8515;BME280;4295;51.024;7.000;2022-07-26T06:52:20;32927.50;;;-143.72;100.00
8515;BME280;4295;51.024;7.000;2022-07-26T06:54:46;32927.50;;;-143.72;100.00
8515;BME280;4295;51.024;7.000;2022-07-26T06:57:11;33685.28;;;-143.72;100.00
8515;BME280;4295;51.024;7.000;2022-07-26T06:59:37;33937.94;;;-143.72;100.00
8515;BME280;4295;51.024;7.000;2022-07-26T07:02:03;32927.50;;;-143.72;100.00
8515;BME280;4295;51.024;7.000;2022-07-26T07:04:30;32169.91;;;-143.72;100.00
8515;BME280;4295;51.024;7.000;2022-07-26T07:06:56;32169.91;;;-143.72;100.00
8515;BME280;4295;51.024;7.000;2022-07-26T07:09:27;33685.28;;;-143.72;100.00
8515;BME280;4295;51.024;7.000;2022-07-26T07:11:53;33432.69;;;-143.72;100.00
8515;BME280;4295;51.024;7.000;2022-07-26T07:14:18;32674.97;;;-143.72;100.00
8515;BME280;4295;51.024;7.000;2022-07-26T07:16:43;33432.69;;;-143.72;100.00
8515;BME280;4295;51.024;7.000;2022-07-26T07:19:09;31917.41;;;-143.72;100.00
8515;BME280;4295;51.024;7.000;2022-07-26T07:21:34;34948.63;;;-143.72;100.00
8515;BME280;4295;51.024;7.000;2022-07-26T07:24:00;36212.47;;;-143.72;100.00
8515;BME280;4295;51.024;7.000;2022-07-26T07:26:25;37729.69;;;-143.72;100.00
8515;BME280;4295;51.024;7.000;2022-07-26T07:28:50;35706.88;;;-143.72;100.00
8515;BME280;4295;51.024;7.000;2022-07-26T07:31:16;32927.50;;;-143.72;100.00
8515;BME280;4295;51.024;7.000;2022-07-26T07:33:42;33937.94;;;-143.72;100.00
8515;BME280;4295;51.024;7.000;2022-07-26T07:36:07;35706.88;;;-143.72;100.00
8515;BME280;4295;51.024;7.000;2022-07-26T07:38:33;35706.88;;;-143.72;100.00
8515;BME280;4295;51.024;7.000;2022-07-26T07:40:58;38488.56;;;-143.72;100.00
8515;BME280;4295;51.024;7.000;2022-07-26T07:43:23;38488.56;;;-143.72;100.00
8515;BME280;4295;51.024;7.000;2022-07-26T07:45:49;39753.72;;;-143.72;100.00
8515;BME280;4295;51.024;7.000;2022-07-26T07:48:14;41778.97;;;-143.72;100.00
8515;BME280;4295;51.024;7.000;2022-07-26T07:50:40;38741.53;;;-143.72;100.00
8515;BME280;4295;51.024;7.000;2022-07-26T07:53:24;36465.28;;;-143.72;100.00
8515;BME280;4295;51.024;7.000;2022-07-26T07:55:49;36212.47;;;-143.72;100.00
8515;BME280;4295;51.024;7.000;2022-07-26T07:58:15;34695.94;;;-143.72;100.00
8515;BME280;4295;51.024;7.000;2022-07-26T08:00:41;33432.69;;;-143.72;100.00
8515;BME280;4295;51.024;7.000;2022-07-26T08:03:07;33432.69;;;-143.72;100.00
8515;BME280;4295;51.024;7.000;2022-07-26T08:05:32;33432.69;;;-143.72;100.00
8515;BME280;4295;51.024;7.000;2022-07-26T08:07:58;32422.41;;;-143.72;100.00
8515;BME280;4295;51.024;7.000;2022-07-26T08:10:23;32927.50;;;-143.72;100.00
8515;BME280;4295;51.024;7.000;2022-07-26T08:12:49;33685.28;;;-143.72;100.00
8515;BME280;4295;51.024;7.000;2022-07-26T08:15:14;30907.59;;;-143.72;100.00
8515;BME280;4295;51.024;7.000;2022-07-26T08:17:40;31917.41;;;-143.72;100.00
8515;BME280;4295;51.024;7.000;2022-07-26T08:20:06;32422.41;;;-143.72;100.00
8515;BME280;4295;51.024;7.000;2022-07-26T08:22:31;33432.69;;;-143.72;100.00
8515;BME280;4295;51.024;7.000;2022-07-26T08:24:57;37476.78;;;-143.72;100.00
8515;BME280;4295;51.024;7.000;2022-07-26T08:27:22;37729.69;;;-143.72;100.00
8515;BME280;4295;51.024;7.000;2022-07-26T08:29:47;37729.69;;;-143.72;100.00
8515;BME280;4295;51.024;7.000;2022-07-26T08:32:13;39500.63;;;-143.72;100.00
8515;BME280;4295;51.024;7.000;2022-07-26T08:34:39;42285.47;;;-143.72;100.00
8515;BME280;4295;51.024;7.000;2022-07-26T08:37:04;40513.03;;;-143.72;100.00
8515;BME280;4295;51.024;7.000;2022-07-26T08:39:29;42285.47;;;-143.72;100.00
8515;BME280;4295;51.024;7.000;2022-07-26T08:41:55;43045.34;;;-143.72;100.00
8515;BME280;4295;51.024;7.000;2022-07-26T08:44:20;42285.47;;;-143.72;100.00
8515;BME280;4295;51.024;7.000;2022-07-26T08:46:45;45833.13;;;-143.72;100.00
8515;BME280;4295;51.024;7.000;2022-07-26T08:49:11;49892.16;;;-143.72;100.00
8515;BME280;4295;51.024;7.000;2022-07-26T08:51:40;46086.66;;;-143.72;100.00
8515;BME280;4295;51.024;7.000;2022-07-26T08:54:10;42538.75;;;-143.72;100.00
8515;BME280;4295;51.024;7.000;2022-07-26T08:56:40;55481.28;;;-143.72;100.00
8515;BME280;4295;51.024;7.000;2022-07-26T08:59:14;59551.94;;;-143.72;100.00
8515;BME280;4295;51.024;7.000;2022-07-26T09:02:00;63882.31;;;-143.72;100.00
8515;BME280;4295;51.024;7.000;2022-07-26T09:04:34;59551.94;;;-143.72;100.00
8515;BME280;4295;51.024;7.000;2022-07-26T09:09:33;52685.56;;;-143.72;100.00
8515;BME280;4295;51.024;7.000;2022-07-26T09:12:20;56752.84;;;-143.72;100.00
8515;BME280;4295;51.024;7.000;2022-07-26T09:14:46;53701.94;;;-143.72;100.00
8515;BME280;4295;51.024;7.000;2022-07-26T09:17:13;62098.56;;;-143.72;100.00
8515;BME280;4295;51.024;7.000;2022-07-26T09:19:39;63627.44;;;-143.72;100.00
8515;BME280;4295;51.024;7.000;2022-07-26T09:22:07;66432.19;;;-143.72;100.00
8515;BME280;4295;51.024;7.000;2022-07-26T09:27:03;79210.13;;;-143.72;100.00
8515;BME280;4295;51.024;7.000;2022-07-26T09:29:29;75915.25;;;-143.72;100.00
8515;BME280;4295;51.024;7.000;2022-07-26T09:32:12;70515.94;;;-143.72;100.00
8515;BME280;4295;51.024;7.000;2022-07-26T09:34:41;70025.16;;;-143.72;100.00
8515;BME280;4295;51.024;7.000;2022-07-26T09:37:07;82279.94;;;-143.72;100.00
8515;BME280;4295;51.024;7.000;2022-07-26T09:39:52;81229.00;;;-143.72;100.00
8515;BME280;4295;51.024;7.000;2022-07-26T09:42:17;73302.41;;;-143.72;100.00
8515;BME280;4295;51.024;7.000;2022-07-26T09:44:43;76388.91;;;-143.72;100.00
8515;BME280;4295;51.024;7.000;2022-07-26T09:47:08;80914.78;;;-143.72;100.00
8515;BME280;4295;51.024;7.000;2022-07-26T09:49:34;79064.13;;;-143.72;100.00
8515;BME280;4295;51.024;7.000;2022-07-26T09:51:59;81401.13;;;-143.72;100.00
8515;BME280;4295;51.024;7.000;2022-07-26T09:56:53;80504.56;;;-143.72;100.00
8515;BME280;4295;51.024;7.000;2022-07-26T09:59:20;75837.31;;;-143.72;100.00
8515;BME280;4295;51.024;7.000;2022-07-26T10:01:47;85743.22;;;-143.72;100.00
8515;BME280;4295;51.024;7.000;2022-07-26T10:04:13;82340.00;;;-143.72;100.00
8515;BME280;4295;51.024;7.000;2022-07-26T10:06:39;88830.88;;;-143.72;100.00
8515;BME280;4295;51.024;7.000;2022-07-26T10:09:05;88108.84;;;-143.72;100.00
8515;BME280;4295;51.024;7.000;2022-07-26T10:11:38;89512.94;;;-143.72;100.00
8515;BME280;4295;51.024;7.000;2022-07-26T10:14:40;90526.25;;;-143.72;100.00
8515;BME280;4295;51.024;7.000;2022-07-26T10:19:58;90863.44;;;-143.72;100.00
8515;BME280;4295;51.024;7.000;2022-07-26T10:22:33;90975.81;;;-143.72;100.00
8515;BME280;4295;51.024;7.000;2022-07-26T10:27:53;90817.28;;;-143.72;100.00
8515;BME280;4295;51.024;7.000;2022-07-26T10:30:19;90668.75;;;-143.72;94.25
8515;BME280;4295;51.024;7.000;2022-07-26T10:35:38;90584.47;;;-143.72;95.81
8515;BME280;4295;51.024;7.000;2022-07-26T10:40:35;90504.19;;;-143.72;92.74
8515;BME280;4295;51.024;7.000;2022-07-26T10:43:11;90339.63;;;-143.72;91.04
8515;BME280;4295;51.024;7.000;2022-07-26T10:45:37;90265.38;;;-143.72;89.71
8515;BME280;4295;51.024;7.000;2022-07-26T10:48:17;90026.59;;;-143.72;83.43
8515;BME280;4295;51.024;7.000;2022-07-26T10:50:48;90197.16;;;-143.72;86.57
8515;BME280;4295;51.024;7.000;2022-07-26T10:53:23;90309.53;;;-143.72;88.90
8515;BME280;4295;51.024;7.000;2022-07-26T10:55:54;90209.19;;;-143.72;86.82
8515;BME280;4295;51.024;7.000;2022-07-26T10:58:23;90177.09;;;-143.72;85.26
8515;BME280;4295;51.024;7.000;2022-07-26T11:01:02;90363.72;;;-143.72;88.78
8515;BME280;4295;51.024;7.000;2022-07-26T11:03:37;90562.38;;;-143.72;91.84
8515;BME280;4295;51.024;7.000;2022-07-26T11:06:16;90632.63;;;-143.72;91.86
8515;BME280;4295;51.024;7.000;2022-07-26T11:08:44;90741.00;;;-143.72;92.64
8515;BME280;4295;51.024;7.000;2022-07-26T11:11:09;90791.19;;;-143.72;92.98
8515;BME280;4295;51.024;7.000;2022-07-26T11:13:34;90562.38;;;-143.72;88.55
8515;BME280;4295;51.024;7.000;2022-07-26T11:16:06;90737.00;;;-143.72;91.48
8515;BME280;4295;51.024;7.000;2022-07-26T11:18:33;90761.06;;;-143.72;93.19
8515;BME280;4295;51.024;7.000;2022-07-26T11:21:11;90807.22;;;-143.72;94.54
8515;BME280;4295;51.024;7.000;2022-07-26T11:23:38;90722.94;;;-143.72;93.27
8515;BME280;4295;51.024;7.000;2022-07-26T11:26:17;90759.06;;;-143.72;93.92
8515;BME280;4295;51.024;7.000;2022-07-26T11:31:08;90506.19;;;-143.72;89.69
8515;BME280;4295;51.024;7.000;2022-07-26T11:33:42;90181.09;;;-143.72;84.34
8515;BME280;4295;51.024;7.000;2022-07-26T11:36:07;89886.13;;;-143.72;80.33
8515;BME280;4295;51.024;7.000;2022-07-26T11:39:04;89930.28;;;-143.72;80.81
8515;BME280;4295;51.024;7.000;2022-07-26T11:41:31;89727.63;;;-143.72;77.86
8515;BME280;4295;51.024;7.000;2022-07-26T11:43:57;89677.47;;;-143.72;77.24
8515;BME280;4295;51.024;7.000;2022-07-26T11:46:32;89862.06;;;-143.72;81.07
8515;BME280;4295;51.024;7.000;2022-07-26T11:48:57;89833.97;;;-143.72;79.70
8515;BME280;4295;51.024;7.000;2022-07-26T11:51:23;89876.09;;;-143.72;82.40
8515;BME280;4295;51.024;7.000;2022-07-26T11:53:50;90140.97;;;-143.72;84.09
8515;BME280;4295;51.024;7.000;2022-07-26T11:56:16;90287.47;;;-143.72;87.16
8515;BME280;4295;51.024;7.000;2022-07-26T11:58:44;90339.63;;;-143.72;87.59
8515;BME280;4295;51.024;7.000;2022-07-26T12:01:12;90520.25;;;-143.72;90.87
8515;BME280;4295;51.024;7.000;2022-07-26T12:03:41;90708.91;;;-143.72;94.05
8515;BME280;4295;51.024;7.000;2022-07-26T12:06:09;90839.34;;;-143.72;96.98
8515;BME280;4295;51.024;7.000;2022-07-26T12:08:56;91015.97;;;-143.72;100.00
8515;BME280;4295;51.024;7.000;2022-07-26T12:11:24;91056.13;;;-143.72;100.00
8515;BME280;4295;51.024;7.000;2022-07-26T12:14:01;91100.28;;;-143.72;100.00
8515;BME280;4295;51.024;7.000;2022-07-26T12:16:37;91094.25;;;-143.72;100.00
8515;BME280;4295;51.024;7.000;2022-07-26T12:19:05;91056.13;;;-143.72;100.00
8515;BME280;4295;51.024;7.000;2022-07-26T12:21:48;91074.19;;;-143.72;100.00
8515;BME280;4295;51.024;7.000;2022-07-26T12:29:54;91088.22;;;-143.72;100.00
8515;BME280;4295;51.024;7.000;2022-07-26T12:35:06;90676.78;;;-143.72;94.05
8515;BME280;4295;51.024;7.000;2022-07-26T12:37:34;90614.56;;;-143.72;92.50
8515;BME280;4295;51.024;7.000;2022-07-26T12:40:12;90670.75;;;-143.72;94.66
8515;BME280;4295;51.024;7.000;2022-07-26T12:42:41;90700.88;;;-143.72;94.98
8515;BME280;4295;51.024;7.000;2022-07-26T12:45:12;91054.09;;;-143.72;97.64
8515;BME280;4295;51.024;7.000;2022-07-26T12:47:40;90995.91;;;-143.72;100.00
8515;BME280;4295;51.024;7.000;2022-07-26T12:50:07;90983.84;;;-143.72;98.54
8515;BME280;4295;51.024;7.000;2022-07-26T12:52:33;91020.00;;;-143.72;100.00
8515;BME280;4295;51.024;7.000;2022-07-26T12:55:00;91001.91;;;-143.72;99.34
8515;BME280;4295;51.024;7.000;2022-07-26T12:57:26;90929.66;;;-143.72;97.96
8515;BME280;4295;51.024;7.000;2022-07-26T12:59:52;90969.81;;;-143.72;100.00
8515;BME280;4295;51.024;7.000;2022-07-26T13:02:19;90917.63;;;-143.72;97.42
8515;BME280;4295;51.024;7.000;2022-07-26T13:04:45;91030.03;;;-143.72;100.00
8515;BME280;4295;51.024;7.000;2022-07-26T13:07:11;90993.91;;;-143.72;100.00
8515;BME280;4295;51.024;7.000;2022-07-26T13:09:36;90841.34;;;-143.72;99.31
8515;BME280;4295;51.024;7.000;2022-07-26T13:12:04;90500.19;;;-143.72;89.98
8515;BME280;4295;51.024;7.000;2022-07-26T13:14:34;90528.28;;;-143.72;89.73
8515;BME280;4295;51.024;7.000;2022-07-26T13:17:01;90492.16;;;-143.72;92.62
8515;BME280;4295;51.024;7.000;2022-07-26T13:19:28;90698.84;;;-143.72;92.47
8515;BME280;4295;51.024;7.000;2022-07-26T13:21:57;90799.22;;;-143.72;96.34